createdAt,value
2022-12-12T00:00:20.247Z,817.0000
2022-12-12T00:01:22.461Z,818.0000
2022-12-12T00:02:24.890Z,818.0000
2022-12-12T00:03:27.184Z,813.0000
2022-12-12T00:04:29.289Z,812.0000
2022-12-12T00:05:31.538Z,809.0000
2022-12-12T00:06:33.827Z,806.0000
2022-12-12T00:07:33.884Z,805.0000
2022-12-12T00:08:36.104Z,802.0000
2022-12-12T00:09:38.404Z,799.0000
2022-12-12T00:10:40.644Z,799.0000
2022-12-12T00:11:42.896Z,798.0000
2022-12-12T00:12:45.121Z,796.0000
2022-12-12T00:13:47.362Z,794.0000
2022-12-12T00:14:49.657Z,792.0000
2022-12-12T00:15:51.915Z,789.0000
2022-12-12T00:16:54.185Z,788.0000
2022-12-12T00:17:54.302Z,788.0000
2022-12-12T00:18:56.603Z,787.0000
2022-12-12T00:19:58.906Z,786.0000
2022-12-12T00:21:01.194Z,782.0000
2022-12-12T00:22:03.482Z,780.0000
2022-12-12T00:23:05.826Z,781.0000
2022-12-12T00:24:06.002Z,780.0000
2022-12-12T00:25:08.378Z,780.0000
2022-12-12T00:26:10.678Z,777.0000
2022-12-12T00:27:12.969Z,775.0000
2022-12-12T00:28:15.250Z,772.0000
2022-12-12T00:29:15.393Z,770.0000
2022-12-12T00:30:17.708Z,769.0000
2022-12-12T00:31:20.115Z,770.0000
2022-12-12T00:32:22.370Z,768.0000
2022-12-12T00:33:24.725Z,770.0000
2022-12-12T00:34:27.094Z,765.0000
2022-12-12T00:35:27.307Z,765.0000
2022-12-12T00:36:29.616Z,762.0000
2022-12-12T00:37:31.978Z,762.0000
2022-12-12T00:38:34.332Z,763.0000
2022-12-12T00:39:36.713Z,763.0000
2022-12-12T00:40:36.974Z,763.0000
2022-12-12T00:41:39.304Z,763.0000
2022-12-12T00:42:41.656Z,760.0000
2022-12-12T00:43:44.018Z,758.0000
2022-12-12T00:44:44.206Z,755.0000
2022-12-12T00:45:46.570Z,757.0000
2022-12-12T00:46:48.857Z,756.0000
2022-12-12T00:47:51.137Z,755.0000
2022-12-12T00:48:53.400Z,754.0000
2022-12-12T00:49:55.729Z,751.0000
2022-12-12T00:50:58.049Z,750.0000
2022-12-12T00:51:58.216Z,747.0000
2022-12-12T00:53:00.509Z,747.0000
2022-12-12T00:54:02.850Z,746.0000
2022-12-12T00:55:05.187Z,743.0000
2022-12-12T00:56:07.575Z,744.0000
2022-12-12T00:57:09.778Z,742.0000
2022-12-12T00:58:09.951Z,740.0000
2022-12-12T00:59:12.209Z,737.0000
2022-12-12T01:00:14.491Z,735.0000
2022-12-12T01:01:16.835Z,735.0000
2022-12-12T01:02:23.509Z,731.0000
2022-12-12T01:03:21.470Z,729.0000
2022-12-12T01:04:21.522Z,729.0000
2022-12-12T01:05:23.880Z,726.0000
2022-12-12T01:06:26.313Z,727.0000
2022-12-12T01:07:28.496Z,723.0000
2022-12-12T01:08:30.877Z,723.0000
2022-12-12T01:09:31.030Z,718.0000
2022-12-12T01:12:01.748Z,695.0000
2022-12-12T01:13:03.896Z,696.0000
2022-12-12T01:14:06.273Z,695.0000
2022-12-12T01:15:06.506Z,692.0000
2022-12-12T01:16:08.993Z,691.0000
2022-12-12T01:17:11.271Z,693.0000
2022-12-12T01:18:13.618Z,693.0000
2022-12-12T01:19:13.831Z,693.0000
2022-12-12T01:20:16.174Z,693.0000
2022-12-12T01:21:18.560Z,696.0000
2022-12-12T01:22:21.057Z,697.0000
2022-12-12T01:23:23.287Z,696.0000
2022-12-12T01:24:23.457Z,694.0000
2022-12-12T01:25:25.739Z,698.0000
2022-12-12T01:26:28.069Z,698.0000
2022-12-12T01:27:30.541Z,696.0000
2022-12-12T01:28:32.733Z,695.0000
2022-12-12T01:29:35.098Z,697.0000
2022-12-12T01:30:35.340Z,699.0000
2022-12-12T01:31:37.798Z,698.0000
2022-12-12T01:32:40.239Z,694.0000
2022-12-12T01:33:42.389Z,689.0000
2022-12-12T01:34:44.698Z,688.0000
2022-12-12T01:35:44.859Z,686.0000
2022-12-12T01:36:47.212Z,686.0000
2022-12-12T01:37:49.538Z,682.0000
2022-12-12T01:38:51.808Z,680.0000
2022-12-12T01:39:54.108Z,676.0000
2022-12-12T01:40:56.413Z,675.0000
2022-12-12T01:41:56.584Z,676.0000
2022-12-12T01:42:58.884Z,677.0000
2022-12-12T01:44:01.175Z,681.0000
2022-12-12T01:45:03.554Z,681.0000
2022-12-12T01:46:05.902Z,683.0000
2022-12-12T01:47:08.304Z,684.0000
2022-12-12T01:48:10.685Z,684.0000
2022-12-12T01:49:13.094Z,684.0000
2022-12-12T01:50:15.459Z,684.0000
2022-12-12T01:51:15.663Z,682.0000
2022-12-12T01:52:18.042Z,685.0000
2022-12-12T01:53:20.413Z,683.0000
2022-12-12T01:54:22.713Z,680.0000
2022-12-12T01:55:25.088Z,678.0000
2022-12-12T01:56:25.306Z,678.0000
2022-12-12T01:57:27.699Z,677.0000
2022-12-12T01:58:30.228Z,674.0000
2022-12-12T01:59:32.476Z,669.0000
2022-12-12T02:00:32.716Z,668.0000
2022-12-12T02:01:35.099Z,667.0000
2022-12-12T02:02:37.484Z,668.0000
2022-12-12T02:03:39.939Z,670.0000
2022-12-12T02:04:40.129Z,670.0000
2022-12-12T02:05:42.463Z,667.0000
2022-12-12T02:06:44.778Z,666.0000
2022-12-12T02:07:47.252Z,666.0000
2022-12-12T02:08:49.521Z,661.0000
2022-12-12T02:09:49.706Z,661.0000
2022-12-12T02:10:52.050Z,661.0000
2022-12-12T02:11:54.428Z,659.0000
2022-12-12T02:12:56.811Z,661.0000
2022-12-12T02:13:59.355Z,659.0000
2022-12-12T02:14:59.419Z,655.0000
2022-12-12T02:16:01.854Z,656.0000
2022-12-12T02:17:04.207Z,657.0000
2022-12-12T02:18:11.213Z,657.0000
2022-12-12T02:19:07.003Z,659.0000
2022-12-12T02:20:09.263Z,659.0000
2022-12-12T02:21:11.649Z,661.0000
2022-12-12T02:22:11.900Z,664.0000
2022-12-12T02:23:14.311Z,661.0000
2022-12-12T02:24:19.418Z,660.0000
2022-12-12T02:25:18.931Z,661.0000
2022-12-12T02:26:21.195Z,660.0000
2022-12-12T02:27:23.484Z,658.0000
2022-12-12T02:28:25.865Z,655.0000
2022-12-12T02:29:28.176Z,650.0000
2022-12-12T02:30:28.299Z,647.0000
2022-12-12T02:31:30.624Z,647.0000
2022-12-12T02:32:32.866Z,647.0000
2022-12-12T02:33:35.193Z,647.0000
2022-12-12T02:34:37.548Z,649.0000
2022-12-12T02:35:39.801Z,651.0000
2022-12-12T02:36:42.119Z,646.0000
2022-12-12T02:37:42.278Z,646.0000
2022-12-12T02:38:44.625Z,647.0000
2022-12-12T02:39:46.946Z,647.0000
2022-12-12T02:40:49.253Z,646.0000
2022-12-12T02:41:51.531Z,646.0000
2022-12-12T02:42:51.718Z,646.0000
2022-12-12T02:43:54.054Z,651.0000
2022-12-12T02:44:56.531Z,651.0000
2022-12-12T02:45:58.708Z,649.0000
2022-12-12T02:47:01.074Z,648.0000
2022-12-12T02:48:03.344Z,650.0000
2022-12-12T02:49:03.476Z,647.0000
2022-12-12T02:50:05.926Z,644.0000
2022-12-12T02:51:08.144Z,641.0000
2022-12-12T02:52:10.456Z,639.0000
2022-12-12T02:53:12.766Z,636.0000
2022-12-12T02:54:15.064Z,634.0000
2022-12-12T02:55:15.539Z,632.0000
2022-12-12T02:56:17.520Z,631.0000
2022-12-12T02:57:19.833Z,633.0000
2022-12-12T02:58:22.178Z,631.0000
2022-12-12T02:59:24.506Z,630.0000
2022-12-12T03:00:27.077Z,630.0000
2022-12-12T03:01:27.102Z,626.0000
2022-12-12T03:02:29.466Z,627.0000
2022-12-12T03:03:31.869Z,630.0000
2022-12-12T03:04:34.193Z,630.0000
2022-12-12T03:05:34.494Z,631.0000
2022-12-12T03:06:40.960Z,633.0000
2022-12-12T03:07:39.276Z,630.0000
2022-12-12T03:08:41.675Z,630.0000
2022-12-12T03:09:41.978Z,630.0000
2022-12-12T03:10:44.376Z,628.0000
2022-12-12T03:11:46.747Z,628.0000
2022-12-12T03:12:46.940Z,627.0000
2022-12-12T03:13:49.312Z,625.0000
2022-12-12T03:14:51.643Z,627.0000
2022-12-12T03:15:54.019Z,625.0000
2022-12-12T03:16:56.246Z,628.0000
2022-12-12T03:17:58.563Z,626.0000
2022-12-12T03:18:58.716Z,627.0000
2022-12-12T03:20:01.072Z,625.0000
2022-12-12T03:21:03.472Z,622.0000
2022-12-12T03:22:05.826Z,623.0000
2022-12-12T03:23:08.215Z,624.0000
2022-12-12T03:24:08.466Z,625.0000
2022-12-12T03:25:11.185Z,624.0000
2022-12-12T03:26:13.275Z,624.0000
2022-12-12T03:27:15.638Z,622.0000
2022-12-12T03:28:15.896Z,619.0000
2022-12-12T03:29:18.308Z,618.0000
2022-12-12T03:30:20.700Z,618.0000
2022-12-12T03:31:23.080Z,621.0000
2022-12-12T03:32:23.281Z,621.0000
2022-12-12T03:33:25.708Z,624.0000
2022-12-12T03:34:28.102Z,624.0000
2022-12-12T03:35:30.496Z,625.0000
2022-12-12T03:36:30.874Z,627.0000
2022-12-12T03:37:33.158Z,625.0000
2022-12-12T03:38:35.590Z,621.0000
2022-12-12T03:39:38.008Z,618.0000
2022-12-12T03:40:38.301Z,618.0000
2022-12-12T03:41:40.820Z,623.0000
2022-12-12T03:42:43.099Z,625.0000
2022-12-12T03:43:43.341Z,625.0000
2022-12-12T03:44:45.711Z,624.0000
2022-12-12T03:45:48.150Z,625.0000
2022-12-12T03:46:50.434Z,623.0000
2022-12-12T03:47:52.778Z,623.0000
2022-12-12T03:48:52.968Z,621.0000
2022-12-12T03:49:55.315Z,619.0000
2022-12-12T03:50:57.650Z,619.0000
2022-12-12T03:52:00.024Z,613.0000
2022-12-12T03:53:02.348Z,614.0000
2022-12-12T03:54:02.517Z,613.0000
2022-12-12T03:55:04.884Z,613.0000
2022-12-12T03:56:07.298Z,608.0000
2022-12-12T03:57:09.650Z,609.0000
2022-12-12T03:58:11.989Z,612.0000
2022-12-12T03:59:12.206Z,613.0000
2022-12-12T04:00:14.572Z,615.0000
2022-12-12T04:01:17.030Z,615.0000
2022-12-12T04:02:19.484Z,618.0000
2022-12-12T04:03:19.484Z,617.0000
2022-12-12T04:04:21.844Z,616.0000
2022-12-12T04:05:24.191Z,613.0000
2022-12-12T04:06:26.556Z,611.0000
2022-12-12T04:07:28.941Z,611.0000
2022-12-12T04:08:29.197Z,613.0000
2022-12-12T04:09:31.473Z,617.0000
2022-12-12T04:10:33.846Z,624.0000
2022-12-12T04:11:36.424Z,630.0000
2022-12-12T04:12:38.584Z,634.0000
2022-12-12T04:13:38.777Z,644.0000
2022-12-12T04:14:41.113Z,647.0000
2022-12-12T04:15:43.399Z,649.0000
2022-12-12T04:16:45.788Z,652.0000
2022-12-12T04:17:48.113Z,655.0000
2022-12-12T04:18:48.294Z,658.0000
2022-12-12T04:19:50.660Z,661.0000
2022-12-12T04:20:53.006Z,663.0000
2022-12-12T04:21:55.366Z,669.0000
2022-12-12T04:22:55.620Z,675.0000
2022-12-12T04:23:57.937Z,678.0000
2022-12-12T04:25:00.305Z,678.0000
2022-12-12T04:26:02.663Z,685.0000
2022-12-12T04:27:05.073Z,686.0000
2022-12-12T04:28:05.273Z,684.0000
2022-12-12T04:29:07.634Z,684.0000
2022-12-12T04:30:09.979Z,683.0000
2022-12-12T04:31:12.387Z,685.0000
2022-12-12T04:32:12.736Z,688.0000
2022-12-12T04:33:15.107Z,689.0000
2022-12-12T04:34:17.507Z,689.0000
2022-12-12T04:35:17.781Z,693.0000
2022-12-12T04:36:20.190Z,691.0000
2022-12-12T04:37:22.600Z,693.0000
2022-12-12T04:38:25.117Z,694.0000
2022-12-12T04:39:25.257Z,699.0000
2022-12-12T04:40:27.666Z,700.0000
2022-12-12T04:41:30.100Z,703.0000
2022-12-12T04:42:32.599Z,703.0000
2022-12-12T04:43:32.822Z,702.0000
2022-12-12T04:44:35.246Z,702.0000
2022-12-12T04:45:37.780Z,701.0000
2022-12-12T04:46:37.988Z,701.0000
2022-12-12T04:47:40.419Z,701.0000
2022-12-12T04:48:44.070Z,701.0000
2022-12-12T04:49:45.259Z,700.0000
2022-12-12T04:50:45.520Z,701.0000
2022-12-12T04:51:47.901Z,699.0000
2022-12-12T04:52:50.265Z,694.0000
2022-12-12T04:53:52.791Z,694.0000
2022-12-12T04:54:52.859Z,690.0000
2022-12-12T04:55:55.185Z,690.0000
2022-12-12T04:58:10.823Z,694.0000
2022-12-12T04:59:13.112Z,689.0000
2022-12-12T05:00:13.293Z,687.0000
2022-12-12T05:01:15.764Z,684.0000
2022-12-12T05:02:18.085Z,687.0000
2022-12-12T05:03:20.387Z,688.0000
2022-12-12T05:04:20.733Z,686.0000
2022-12-12T05:05:22.980Z,686.0000
2022-12-12T05:06:25.350Z,686.0000
2022-12-12T05:07:27.742Z,683.0000
2022-12-12T05:08:30.212Z,681.0000
2022-12-12T05:09:30.417Z,682.0000
2022-12-12T05:10:32.611Z,680.0000
2022-12-12T05:11:34.906Z,681.0000
2022-12-12T05:12:37.223Z,680.0000
2022-12-12T05:13:39.537Z,677.0000
2022-12-12T05:14:41.880Z,678.0000
2022-12-12T05:15:45.011Z,680.0000
2022-12-12T05:16:44.386Z,679.0000
2022-12-12T05:17:46.711Z,681.0000
2022-12-12T05:18:49.031Z,684.0000
2022-12-12T05:19:51.364Z,686.0000
2022-12-12T05:20:53.639Z,691.0000
2022-12-12T05:21:53.822Z,688.0000
2022-12-12T05:22:56.176Z,688.0000
2022-12-12T05:23:58.515Z,689.0000
2022-12-12T05:25:00.850Z,689.0000
2022-12-12T05:26:03.166Z,690.0000
2022-12-12T05:27:05.483Z,690.0000
2022-12-12T05:28:05.656Z,689.0000
2022-12-12T05:29:08.047Z,687.0000
2022-12-12T05:30:10.230Z,690.0000
2022-12-12T05:31:12.559Z,690.0000
2022-12-12T05:32:14.756Z,690.0000
2022-12-12T05:33:17.129Z,693.0000
2022-12-12T05:34:19.453Z,695.0000
2022-12-12T05:35:21.828Z,694.0000
2022-12-12T05:36:24.074Z,693.0000
2022-12-12T05:37:26.388Z,692.0000
2022-12-12T05:38:28.706Z,691.0000
2022-12-12T05:39:28.919Z,693.0000
2022-12-12T05:40:31.300Z,693.0000
2022-12-12T05:41:33.622Z,695.0000
2022-12-12T05:42:35.937Z,695.0000
2022-12-12T05:43:38.287Z,695.0000
2022-12-12T05:44:38.514Z,692.0000
2022-12-12T05:45:40.839Z,690.0000
2022-12-12T05:46:43.119Z,690.0000
2022-12-12T05:47:45.499Z,687.0000
2022-12-12T05:48:26.368Z,689.0000
2022-12-12T05:49:28.736Z,711.0000
2022-12-12T05:50:26.797Z,725.0000
2022-12-12T05:51:29.185Z,710.0000
2022-12-12T05:52:29.365Z,706.0000
2022-12-12T05:53:31.689Z,703.0000
2022-12-12T05:54:34.032Z,703.0000
2022-12-12T05:55:36.356Z,700.0000
2022-12-12T05:56:38.752Z,699.0000
2022-12-12T05:57:38.947Z,699.0000
2022-12-12T05:58:41.323Z,700.0000
2022-12-12T05:59:43.692Z,700.0000
2022-12-12T06:00:45.970Z,703.0000
2022-12-12T06:01:48.368Z,704.0000
2022-12-12T06:02:48.638Z,704.0000
2022-12-12T06:03:51.047Z,706.0000
2022-12-12T06:04:53.402Z,707.0000
2022-12-12T06:05:53.675Z,708.0000
2022-12-12T06:06:56.111Z,706.0000
2022-12-12T06:07:58.493Z,706.0000
2022-12-12T06:09:00.808Z,709.0000
2022-12-12T06:10:03.187Z,710.0000
2022-12-12T06:11:03.391Z,709.0000
2022-12-12T06:12:05.774Z,709.0000
2022-12-12T06:13:08.085Z,712.0000
2022-12-12T06:14:10.469Z,714.0000
2022-12-12T06:15:13.037Z,715.0000
2022-12-12T06:16:13.061Z,715.0000
2022-12-12T06:17:15.309Z,712.0000
2022-12-12T06:18:17.608Z,716.0000
2022-12-12T06:19:19.924Z,716.0000
2022-12-12T06:20:22.305Z,715.0000
2022-12-12T06:21:24.665Z,712.0000
2022-12-12T06:22:24.894Z,714.0000
2022-12-12T06:23:27.223Z,716.0000
2022-12-12T06:24:29.591Z,717.0000
2022-12-12T06:25:31.937Z,716.0000
2022-12-12T06:26:32.145Z,716.0000
2022-12-12T06:27:34.531Z,718.0000
2022-12-12T06:28:36.850Z,717.0000
2022-12-12T06:29:39.224Z,718.0000
2022-12-12T06:30:39.549Z,716.0000
2022-12-12T06:31:41.925Z,717.0000
2022-12-12T06:32:44.260Z,716.0000
2022-12-12T06:33:46.636Z,720.0000
2022-12-12T06:34:46.883Z,721.0000
2022-12-12T06:35:49.273Z,719.0000
2022-12-12T06:36:51.660Z,718.0000
2022-12-12T06:37:54.183Z,718.0000
2022-12-12T06:38:54.281Z,719.0000
2022-12-12T06:39:56.614Z,720.0000
2022-12-12T06:40:58.951Z,722.0000
2022-12-12T06:42:01.325Z,723.0000
2022-12-12T06:43:03.747Z,722.0000
2022-12-12T06:44:03.899Z,723.0000
2022-12-12T06:45:06.289Z,723.0000
2022-12-12T06:46:08.792Z,727.0000
2022-12-12T06:47:11.070Z,730.0000
2022-12-12T06:48:13.584Z,736.0000
2022-12-12T06:49:13.695Z,743.0000
2022-12-12T06:50:21.867Z,750.0000
2022-12-12T06:51:18.333Z,753.0000
2022-12-12T06:52:20.620Z,755.0000
2022-12-12T06:53:22.962Z,760.0000
2022-12-12T06:54:23.128Z,763.0000
2022-12-12T06:55:25.564Z,765.0000
2022-12-12T06:56:28.003Z,769.0000
2022-12-12T06:57:30.427Z,771.0000
2022-12-12T06:58:30.728Z,776.0000
2022-12-12T06:59:33.136Z,779.0000
2022-12-12T07:00:35.559Z,783.0000
2022-12-12T07:01:38.077Z,787.0000
2022-12-12T07:02:38.393Z,792.0000
2022-12-12T07:03:40.788Z,794.0000
2022-12-12T07:04:43.201Z,796.0000
2022-12-12T07:05:45.647Z,802.0000
2022-12-12T07:06:48.084Z,807.0000
2022-12-12T07:07:50.562Z,808.0000
2022-12-12T07:08:50.828Z,812.0000
2022-12-12T07:09:53.217Z,815.0000
2022-12-12T07:10:55.619Z,817.0000
2022-12-12T07:11:55.884Z,819.0000
2022-12-12T07:12:58.292Z,824.0000
2022-12-12T07:14:00.735Z,831.0000
2022-12-12T07:15:03.158Z,836.0000
2022-12-12T07:16:03.497Z,838.0000
2022-12-12T07:17:05.889Z,837.0000
2022-12-12T07:18:08.212Z,837.0000
2022-12-12T07:19:10.588Z,841.0000
2022-12-12T07:20:10.805Z,844.0000
2022-12-12T07:21:13.194Z,846.0000
2022-12-12T07:22:15.579Z,848.0000
2022-12-12T07:23:17.975Z,848.0000
2022-12-12T07:24:18.236Z,847.0000
2022-12-12T07:25:20.611Z,847.0000
2022-12-12T07:26:23.034Z,845.0000
2022-12-12T07:27:25.434Z,851.0000
2022-12-12T07:28:25.672Z,854.0000
2022-12-12T07:29:28.048Z,853.0000
2022-12-12T07:30:30.390Z,851.0000
2022-12-12T07:31:32.806Z,853.0000
2022-12-12T07:32:35.242Z,853.0000
2022-12-12T07:33:43.153Z,858.0000
2022-12-12T07:34:37.729Z,862.0000
2022-12-12T07:35:40.095Z,866.0000
2022-12-12T07:36:42.493Z,871.0000
2022-12-12T07:37:42.741Z,874.0000
2022-12-12T07:38:45.163Z,875.0000
2022-12-12T07:39:47.880Z,874.0000
2022-12-12T07:40:50.006Z,876.0000
2022-12-12T07:41:50.240Z,874.0000
2022-12-12T07:42:52.635Z,874.0000
2022-12-12T07:43:54.945Z,871.0000
2022-12-12T07:44:57.354Z,874.0000
2022-12-12T07:45:57.578Z,874.0000
2022-12-12T07:47:00.048Z,874.0000
2022-12-12T07:48:02.375Z,877.0000
2022-12-12T07:49:04.682Z,879.0000
2022-12-12T07:50:04.888Z,883.0000
2022-12-12T07:51:07.223Z,889.0000
2022-12-12T07:52:09.572Z,890.0000
2022-12-12T07:53:11.978Z,893.0000
2022-12-12T07:54:14.340Z,895.0000
2022-12-12T07:55:15.025Z,895.0000
2022-12-12T07:56:16.880Z,894.0000
2022-12-12T07:57:19.238Z,893.0000
2022-12-12T07:58:21.568Z,897.0000
2022-12-12T07:59:23.968Z,901.0000
2022-12-12T08:00:24.221Z,900.0000
2022-12-12T08:01:26.653Z,899.0000
2022-12-12T08:02:28.905Z,902.0000
2022-12-12T08:03:31.255Z,904.0000
2022-12-12T08:04:33.621Z,913.0000
2022-12-12T08:05:33.843Z,922.0000
2022-12-12T08:06:36.148Z,918.0000
2022-12-12T08:07:38.527Z,916.0000
2022-12-12T08:08:40.896Z,916.0000
2022-12-12T08:09:41.106Z,918.0000
2022-12-12T08:10:43.550Z,921.0000
2022-12-12T08:11:46.781Z,923.0000
2022-12-12T08:12:48.077Z,927.0000
2022-12-12T08:13:50.427Z,926.0000
2022-12-12T08:14:52.770Z,926.0000
2022-12-12T08:15:53.139Z,930.0000
2022-12-12T08:16:55.435Z,931.0000
2022-12-12T08:17:57.843Z,933.0000
2022-12-12T08:19:00.288Z,938.0000
2022-12-12T08:20:02.660Z,942.0000
2022-12-12T08:21:05.065Z,943.0000
2022-12-12T08:22:07.476Z,947.0000
2022-12-12T08:23:07.735Z,946.0000
2022-12-12T08:24:10.157Z,944.0000
2022-12-12T08:25:12.831Z,946.0000
2022-12-12T08:26:12.878Z,946.0000
2022-12-12T08:27:15.932Z,947.0000
2022-12-12T08:28:17.630Z,946.0000
2022-12-12T08:29:20.005Z,943.0000
2022-12-12T08:30:22.375Z,943.0000
2022-12-12T08:31:22.739Z,942.0000
2022-12-12T08:32:25.099Z,945.0000
2022-12-12T08:33:27.536Z,945.0000
2022-12-12T08:34:27.843Z,944.0000
2022-12-12T08:35:30.244Z,940.0000
2022-12-12T08:36:33.043Z,940.0000
2022-12-12T08:37:35.008Z,943.0000
2022-12-12T08:38:35.236Z,944.0000
2022-12-12T08:39:37.591Z,945.0000
2022-12-12T08:40:40.006Z,945.0000
2022-12-12T08:41:42.447Z,946.0000
2022-12-12T08:42:42.675Z,952.0000
2022-12-12T08:43:45.091Z,954.0000
2022-12-12T08:44:47.492Z,955.0000
2022-12-12T08:45:49.903Z,956.0000
2022-12-12T08:46:50.260Z,958.0000
2022-12-12T08:47:52.560Z,978.0000
2022-12-12T08:48:54.987Z,983.0000
2022-12-12T08:49:57.421Z,991.0000
2022-12-12T08:50:57.659Z,994.0000
2022-12-12T08:52:00.070Z,1006.0000
2022-12-12T08:53:02.397Z,999.0000
2022-12-12T08:54:04.738Z,841.0000
2022-12-12T08:55:05.043Z,720.0000
2022-12-12T08:56:05.342Z,680.0000
2022-12-12T08:57:09.205Z,782.0000
2022-12-12T08:58:10.210Z,896.0000
2022-12-12T08:59:10.507Z,907.0000
2022-12-12T09:00:12.947Z,913.0000
2022-12-12T09:01:13.202Z,917.0000
2022-12-12T09:02:15.760Z,918.0000
2022-12-12T09:03:17.997Z,917.0000
2022-12-12T09:04:20.416Z,912.0000
2022-12-12T09:05:20.707Z,910.0000
2022-12-12T09:06:23.084Z,907.0000
2022-12-12T09:07:25.506Z,901.0000
2022-12-12T09:08:25.823Z,899.0000
2022-12-12T09:09:28.184Z,895.0000
2022-12-12T09:10:30.607Z,895.0000
2022-12-12T09:11:33.039Z,898.0000
2022-12-12T09:12:38.264Z,896.0000
2022-12-12T09:13:35.613Z,896.0000
2022-12-12T09:14:38.005Z,890.0000
2022-12-12T09:15:40.404Z,884.0000
2022-12-12T09:16:40.709Z,884.0000
2022-12-12T09:17:43.123Z,884.0000
2022-12-12T09:18:49.017Z,888.0000
2022-12-12T09:19:47.899Z,888.0000
2022-12-12T09:20:48.141Z,887.0000
2022-12-12T09:21:50.491Z,889.0000
2022-12-12T09:22:52.860Z,887.0000
2022-12-12T09:23:55.150Z,885.0000
2022-12-12T09:24:57.518Z,885.0000
2022-12-12T09:25:57.760Z,882.0000
2022-12-12T09:27:00.125Z,878.0000
2022-12-12T09:28:03.052Z,878.0000
2022-12-12T09:29:04.847Z,876.0000
2022-12-12T09:30:07.197Z,879.0000
2022-12-12T09:31:07.524Z,881.0000
2022-12-12T09:32:09.759Z,883.0000
2022-12-12T09:33:12.133Z,886.0000
2022-12-12T09:34:14.471Z,885.0000
2022-12-12T09:35:16.835Z,883.0000
2022-12-12T09:36:17.055Z,883.0000
2022-12-12T09:37:19.391Z,875.0000
2022-12-12T09:39:54.321Z,851.0000
2022-12-12T09:40:56.555Z,849.0000
2022-12-12T09:41:58.830Z,849.0000
2022-12-12T09:43:01.177Z,849.0000
2022-12-12T09:44:03.539Z,849.0000
2022-12-12T09:45:03.800Z,848.0000
2022-12-12T09:46:06.207Z,848.0000
2022-12-12T09:47:08.504Z,845.0000
2022-12-12T09:48:10.830Z,845.0000
2022-12-12T09:49:13.195Z,842.0000
2022-12-12T09:50:13.962Z,840.0000
2022-12-12T09:51:15.708Z,838.0000
2022-12-12T09:52:18.085Z,840.0000
2022-12-12T09:53:20.417Z,841.0000
2022-12-12T09:54:22.785Z,840.0000
2022-12-12T09:55:23.035Z,838.0000
2022-12-12T09:56:25.342Z,841.0000
2022-12-12T09:57:27.628Z,843.0000
2022-12-12T09:58:29.962Z,841.0000
2022-12-12T09:59:32.233Z,844.0000
2022-12-12T10:00:34.635Z,846.0000
2022-12-12T10:01:34.723Z,847.0000
2022-12-12T10:02:37.076Z,847.0000
2022-12-12T10:03:39.388Z,851.0000
2022-12-12T10:04:45.247Z,853.0000
2022-12-12T10:05:44.081Z,851.0000
2022-12-12T10:06:44.262Z,849.0000
2022-12-12T10:07:46.665Z,848.0000
2022-12-12T10:08:48.942Z,849.0000
2022-12-12T10:09:51.268Z,848.0000
2022-12-12T10:10:53.629Z,842.0000
2022-12-12T10:11:55.936Z,839.0000
2022-12-12T10:12:56.135Z,840.0000
2022-12-12T10:13:58.461Z,842.0000
2022-12-12T10:15:00.900Z,840.0000
2022-12-12T10:16:01.283Z,839.0000
2022-12-12T10:17:03.535Z,837.0000
2022-12-12T10:18:05.947Z,836.0000
2022-12-12T10:19:08.358Z,836.0000
2022-12-12T10:20:08.572Z,835.0000
2022-12-12T10:21:11.081Z,834.0000
2022-12-12T10:22:15.071Z,835.0000
2022-12-12T10:23:15.638Z,832.0000
2022-12-12T10:24:18.007Z,828.0000
2022-12-12T10:25:18.253Z,826.0000
2022-12-12T10:26:20.680Z,823.0000
2022-12-12T10:27:23.065Z,821.0000
2022-12-12T10:28:25.476Z,822.0000
2022-12-12T10:29:25.696Z,825.0000
2022-12-12T10:30:28.094Z,824.0000
2022-12-12T10:31:30.712Z,824.0000
2022-12-12T10:32:32.900Z,824.0000
2022-12-12T10:33:33.132Z,821.0000
2022-12-12T10:34:35.557Z,821.0000
2022-12-12T10:35:37.901Z,815.0000
2022-12-12T10:36:40.305Z,814.0000
2022-12-12T10:37:40.560Z,815.0000
2022-12-12T10:38:42.920Z,812.0000
2022-12-12T10:39:45.304Z,813.0000
2022-12-12T10:40:47.719Z,812.0000
2022-12-12T10:41:48.013Z,813.0000
2022-12-12T10:42:50.388Z,809.0000
2022-12-12T10:43:52.783Z,808.0000
2022-12-12T10:44:55.175Z,806.0000
2022-12-12T10:45:55.570Z,805.0000
2022-12-12T10:46:58.045Z,805.0000
2022-12-12T10:48:00.248Z,797.0000
2022-12-12T10:49:02.661Z,792.0000
2022-12-12T10:50:02.938Z,792.0000
2022-12-12T10:51:05.340Z,793.0000
2022-12-12T10:52:07.803Z,795.0000
2022-12-12T10:53:10.231Z,795.0000
2022-12-12T10:54:12.621Z,792.0000
2022-12-12T10:55:15.262Z,797.0000
2022-12-12T10:56:17.373Z,790.0000
2022-12-12T10:57:20.513Z,785.0000
2022-12-12T10:58:20.077Z,785.0000
2022-12-12T10:59:22.470Z,787.0000
2022-12-12T11:00:24.862Z,786.0000
2022-12-12T11:01:44.930Z,784.0000
2022-12-12T11:02:27.671Z,783.0000
2022-12-12T11:03:29.964Z,783.0000
2022-12-12T11:04:32.230Z,781.0000
2022-12-12T11:05:32.463Z,784.0000
2022-12-12T11:06:34.842Z,784.0000
2022-12-12T11:07:37.272Z,782.0000
2022-12-12T11:08:39.656Z,784.0000
2022-12-12T11:09:39.904Z,781.0000
2022-12-12T11:10:42.284Z,778.0000
2022-12-12T11:11:44.695Z,780.0000
2022-12-12T11:12:47.267Z,775.0000
2022-12-12T11:13:47.339Z,777.0000
2022-12-12T11:14:49.759Z,776.0000
2022-12-12T11:15:52.176Z,779.0000
2022-12-12T11:16:54.626Z,773.0000
2022-12-12T11:17:54.834Z,774.0000
2022-12-12T11:18:57.102Z,771.0000
2022-12-12T11:19:59.434Z,771.0000
2022-12-12T11:21:01.821Z,768.0000
2022-12-12T11:22:04.190Z,770.0000
2022-12-12T11:23:04.468Z,768.0000
2022-12-12T11:24:06.821Z,765.0000
2022-12-12T11:25:09.193Z,763.0000
2022-12-12T11:26:11.540Z,759.0000
2022-12-12T11:27:13.938Z,756.0000
2022-12-12T11:28:14.163Z,756.0000
2022-12-12T11:29:16.529Z,753.0000
2022-12-12T11:30:18.900Z,754.0000
2022-12-12T11:31:19.218Z,754.0000
2022-12-12T11:32:21.498Z,756.0000
2022-12-12T11:33:23.910Z,756.0000
2022-12-12T11:34:26.247Z,755.0000
2022-12-12T11:35:28.631Z,754.0000
2022-12-12T11:36:28.872Z,750.0000
2022-12-12T11:37:31.247Z,749.0000
2022-12-12T11:38:33.606Z,750.0000
2022-12-12T11:39:35.980Z,748.0000
2022-12-12T11:40:36.249Z,748.0000
2022-12-12T11:41:38.674Z,747.0000
2022-12-12T11:42:41.115Z,749.0000
2022-12-12T11:43:43.608Z,747.0000
2022-12-12T11:44:43.810Z,747.0000
2022-12-12T11:45:46.276Z,745.0000
2022-12-12T11:46:48.677Z,748.0000
2022-12-12T11:47:48.976Z,751.0000
2022-12-12T11:48:51.405Z,747.0000
2022-12-12T11:49:53.803Z,748.0000
2022-12-12T11:50:56.189Z,749.0000
2022-12-12T11:51:56.465Z,752.0000
2022-12-12T11:52:58.868Z,750.0000
2022-12-12T11:54:01.298Z,749.0000
2022-12-12T11:55:03.612Z,747.0000
2022-12-12T11:56:03.891Z,748.0000
2022-12-12T11:57:06.234Z,748.0000
2022-12-12T11:58:08.617Z,748.0000
2022-12-12T11:59:11.080Z,748.0000
2022-12-12T12:00:13.335Z,747.0000
2022-12-12T12:01:13.540Z,746.0000
2022-12-12T12:02:15.915Z,751.0000
2022-12-12T12:03:18.301Z,752.0000
2022-12-12T12:04:20.719Z,744.0000
2022-12-12T12:05:20.830Z,745.0000
2022-12-12T12:06:23.212Z,740.0000
2022-12-12T12:07:25.563Z,742.0000
2022-12-12T12:08:27.969Z,740.0000
2022-12-12T12:09:28.296Z,738.0000
2022-12-12T12:10:30.494Z,740.0000